sensor_id;sensor_type;location;lat;lon;timestamp;temperature;humidity
6307;DHT22;3186;54.062;9.962;2023-03-30T00:00:12;9.10;99.90
6307;DHT22;3186;54.062;9.962;2023-03-30T00:02:47;9.00;99.90
6307;DHT22;3186;54.062;9.962;2023-03-30T00:05:15;9.00;99.90
6307;DHT22;3186;54.062;9.962;2023-03-30T00:07:42;9.00;99.90
6307;DHT22;3186;54.062;9.962;2023-03-30T00:10:15;9.10;99.90
6307;DHT22;3186;54.062;9.962;2023-03-30T00:12:45;9.00;99.90
6307;DHT22;3186;54.062;9.962;2023-03-30T00:15:13;9.00;99.90
6307;DHT22;3186;54.062;9.962;2023-03-30T00:17:39;9.10;99.90
6307;DHT22;3186;54.062;9.962;2023-03-30T00:20:07;9.00;99.90
6307;DHT22;3186;54.062;9.962;2023-03-30T00:22:44;9.10;99.90
6307;DHT22;3186;54.062;9.962;2023-03-30T00:25:12;9.00;99.90
6307;DHT22;3186;54.062;9.962;2023-03-30T00:27:39;9.00;99.90
6307;DHT22;3186;54.062;9.962;2023-03-30T00:30:15;9.10;99.90
6307;DHT22;3186;54.062;9.962;2023-03-30T00:32:43;9.00;99.90
6307;DHT22;3186;54.062;9.962;2023-03-30T00:35:09;9.00;99.90
6307;DHT22;3186;54.062;9.962;2023-03-30T00:37:36;9.00;99.90
6307;DHT22;3186;54.062;9.962;2023-03-30T00:40:07;9.00;99.90
6307;DHT22;3186;54.062;9.962;2023-03-30T00:42:34;9.00;99.90
6307;DHT22;3186;54.062;9.962;2023-03-30T00:45:25;9.00;99.90
6307;DHT22;3186;54.062;9.962;2023-03-30T00:48:05;9.10;99.90
6307;DHT22;3186;54.062;9.962;2023-03-30T00:53:32;9.00;99.90
6307;DHT22;3186;54.062;9.962;2023-03-30T00:56:00;9.00;99.90
6307;DHT22;3186;54.062;9.962;2023-03-30T00:58:28;9.00;99.90
6307;DHT22;3186;54.062;9.962;2023-03-30T01:00:56;9.00;99.90
6307;DHT22;3186;54.062;9.962;2023-03-30T01:03:29;9.10;99.90
6307;DHT22;3186;54.062;9.962;2023-03-30T01:05:58;9.10;99.90
6307;DHT22;3186;54.062;9.962;2023-03-30T01:08:26;9.00;99.90
6307;DHT22;3186;54.062;9.962;2023-03-30T01:11:04;9.10;99.90
6307;DHT22;3186;54.062;9.962;2023-03-30T01:13:34;9.20;99.90
6307;DHT22;3186;54.062;9.962;2023-03-30T01:16:07;9.20;99.90
6307;DHT22;3186;54.062;9.962;2023-03-30T01:23:36;9.10;99.90
6307;DHT22;3186;54.062;9.962;2023-03-30T01:39:40;9.10;99.90
6307;DHT22;3186;54.062;9.962;2023-03-30T01:42:16;9.10;99.90
6307;DHT22;3186;54.062;9.962;2023-03-30T01:47:31;9.10;99.90
6307;DHT22;3186;54.062;9.962;2023-03-30T01:50:20;9.10;99.90
6307;DHT22;3186;54.062;9.962;2023-03-30T01:52:57;9.20;99.90
6307;DHT22;3186;54.062;9.962;2023-03-30T01:55:33;9.10;99.90
6307;DHT22;3186;54.062;9.962;2023-03-30T01:58:06;9.20;99.90
6307;DHT22;3186;54.062;9.962;2023-03-30T02:00:34;9.20;99.90
6307;DHT22;3186;54.062;9.962;2023-03-30T02:03:10;9.20;99.90
6307;DHT22;3186;54.062;9.962;2023-03-30T02:05:37;9.20;99.90
6307;DHT22;3186;54.062;9.962;2023-03-30T02:08:08;9.30;99.90
6307;DHT22;3186;54.062;9.962;2023-03-30T02:10:36;9.20;99.90
6307;DHT22;3186;54.062;9.962;2023-03-30T02:13:04;9.20;99.90
6307;DHT22;3186;54.062;9.962;2023-03-30T02:15:37;9.30;99.90
6307;DHT22;3186;54.062;9.962;2023-03-30T02:18:04;9.30;99.90
6307;DHT22;3186;54.062;9.962;2023-03-30T02:20:31;9.20;99.90
6307;DHT22;3186;54.062;9.962;2023-03-30T02:22:58;9.30;99.90
6307;DHT22;3186;54.062;9.962;2023-03-30T02:25:26;9.30;99.90
6307;DHT22;3186;54.062;9.962;2023-03-30T02:27:52;9.20;99.90
6307;DHT22;3186;54.062;9.962;2023-03-30T02:30:18;9.20;99.90
6307;DHT22;3186;54.062;9.962;2023-03-30T02:32:52;9.20;99.90
6307;DHT22;3186;54.062;9.962;2023-03-30T02:58:15;9.20;99.90
6307;DHT22;3186;54.062;9.962;2023-03-30T03:04:08;9.20;99.90
6307;DHT22;3186;54.062;9.962;2023-03-30T03:06:48;9.20;99.90
6307;DHT22;3186;54.062;9.962;2023-03-30T03:09:21;9.20;99.90
6307;DHT22;3186;54.062;9.962;2023-03-30T03:11:51;9.30;99.90
6307;DHT22;3186;54.062;9.962;2023-03-30T03:14:17;9.20;99.90
6307;DHT22;3186;54.062;9.962;2023-03-30T03:16:45;9.20;99.90
6307;DHT22;3186;54.062;9.962;2023-03-30T03:19:14;9.20;99.90
6307;DHT22;3186;54.062;9.962;2023-03-30T03:21:42;9.30;99.90
6307;DHT22;3186;54.062;9.962;2023-03-30T03:24:08;9.30;99.90
6307;DHT22;3186;54.062;9.962;2023-03-30T03:27:09;9.30;99.90
6307;DHT22;3186;54.062;9.962;2023-03-30T03:29:58;9.30;99.90
6307;DHT22;3186;54.062;9.962;2023-03-30T03:32:24;9.20;99.90
6307;DHT22;3186;54.062;9.962;2023-03-30T03:34:50;9.10;99.90
6307;DHT22;3186;54.062;9.962;2023-03-30T03:37:17;9.20;99.90
6307;DHT22;3186;54.062;9.962;2023-03-30T03:39:44;9.20;99.90
6307;DHT22;3186;54.062;9.962;2023-03-30T03:42:12;9.20;99.90
6307;DHT22;3186;54.062;9.962;2023-03-30T03:44:49;9.20;99.90
6307;DHT22;3186;54.062;9.962;2023-03-30T03:47:15;9.10;99.90
6307;DHT22;3186;54.062;9.962;2023-03-30T03:49:41;9.20;99.90
6307;DHT22;3186;54.062;9.962;2023-03-30T03:52:07;9.20;99.90
6307;DHT22;3186;54.062;9.962;2023-03-30T03:54:33;9.20;99.90
6307;DHT22;3186;54.062;9.962;2023-03-30T03:56:59;9.20;99.90
6307;DHT22;3186;54.062;9.962;2023-03-30T03:59:26;9.20;99.90
6307;DHT22;3186;54.062;9.962;2023-03-30T04:01:52;9.20;99.90
6307;DHT22;3186;54.062;9.962;2023-03-30T04:04:18;9.20;99.90
6307;DHT22;3186;54.062;9.962;2023-03-30T04:06:44;9.30;99.90
6307;DHT22;3186;54.062;9.962;2023-03-30T04:09:10;9.20;99.90
6307;DHT22;3186;54.062;9.962;2023-03-30T04:11:55;9.30;99.90
6307;DHT22;3186;54.062;9.962;2023-03-30T04:14:47;9.20;99.90
6307;DHT22;3186;54.062;9.962;2023-03-30T04:17:32;9.30;99.90
6307;DHT22;3186;54.062;9.962;2023-03-30T04:20:17;9.30;99.90
6307;DHT22;3186;54.062;9.962;2023-03-30T04:22:47;9.40;99.90
6307;DHT22;3186;54.062;9.962;2023-03-30T04:25:40;9.30;99.90
6307;DHT22;3186;54.062;9.962;2023-03-30T04:28:18;9.30;99.90
6307;DHT22;3186;54.062;9.962;2023-03-30T04:31:09;9.30;99.90
6307;DHT22;3186;54.062;9.962;2023-03-30T04:34:00;9.30;99.90
6307;DHT22;3186;54.062;9.962;2023-03-30T04:36:54;9.40;99.90
6307;DHT22;3186;54.062;9.962;2023-03-30T04:39:52;9.30;99.90
6307;DHT22;3186;54.062;9.962;2023-03-30T04:42:43;9.40;99.90
6307;DHT22;3186;54.062;9.962;2023-03-30T04:45:17;9.30;99.90
6307;DHT22;3186;54.062;9.962;2023-03-30T04:48:01;9.40;99.90
6307;DHT22;3186;54.062;9.962;2023-03-30T04:50:33;9.30;99.90
6307;DHT22;3186;54.062;9.962;2023-03-30T04:53:22;9.40;99.90
6307;DHT22;3186;54.062;9.962;2023-03-30T04:55:49;9.30;99.90
6307;DHT22;3186;54.062;9.962;2023-03-30T04:58:36;9.30;99.90
6307;DHT22;3186;54.062;9.962;2023-03-30T05:01:22;9.40;99.90
6307;DHT22;3186;54.062;9.962;2023-03-30T05:04:01;9.40;99.90
6307;DHT22;3186;54.062;9.962;2023-03-30T05:06:42;9.40;99.90
6307;DHT22;3186;54.062;9.962;2023-03-30T05:09:41;9.30;99.90
6307;DHT22;3186;54.062;9.962;2023-03-30T05:12:09;9.30;99.90
6307;DHT22;3186;54.062;9.962;2023-03-30T05:14:41;9.20;99.90
6307;DHT22;3186;54.062;9.962;2023-03-30T05:17:33;9.30;99.90
6307;DHT22;3186;54.062;9.962;2023-03-30T05:20:18;9.30;99.90
6307;DHT22;3186;54.062;9.962;2023-03-30T05:23:01;9.40;99.90
6307;DHT22;3186;54.062;9.962;2023-03-30T05:25:53;9.40;99.90
6307;DHT22;3186;54.062;9.962;2023-03-30T05:28:40;9.50;99.90
6307;DHT22;3186;54.062;9.962;2023-03-30T05:31:34;9.50;99.90
6307;DHT22;3186;54.062;9.962;2023-03-30T05:34:29;9.50;99.90
6307;DHT22;3186;54.062;9.962;2023-03-30T05:37:21;9.50;99.90
6307;DHT22;3186;54.062;9.962;2023-03-30T05:40:08;9.30;99.90
6307;DHT22;3186;54.062;9.962;2023-03-30T05:43:01;9.50;99.90
6307;DHT22;3186;54.062;9.962;2023-03-30T05:45:47;9.40;99.90
6307;DHT22;3186;54.062;9.962;2023-03-30T05:48:45;9.50;99.90
6307;DHT22;3186;54.062;9.962;2023-03-30T05:51:28;9.60;99.90
6307;DHT22;3186;54.062;9.962;2023-03-30T05:54:10;9.60;99.90
6307;DHT22;3186;54.062;9.962;2023-03-30T05:56:49;9.70;99.90
6307;DHT22;3186;54.062;9.962;2023-03-30T05:59:38;9.60;99.90
6307;DHT22;3186;54.062;9.962;2023-03-30T06:02:14;9.50;99.90
6307;DHT22;3186;54.062;9.962;2023-03-30T06:04:42;9.60;99.90
6307;DHT22;3186;54.062;9.962;2023-03-30T06:07:08;9.60;99.90
6307;DHT22;3186;54.062;9.962;2023-03-30T06:09:35;9.70;99.90
6307;DHT22;3186;54.062;9.962;2023-03-30T06:12:08;9.60;99.90
6307;DHT22;3186;54.062;9.962;2023-03-30T06:14:35;9.70;99.90
6307;DHT22;3186;54.062;9.962;2023-03-30T06:17:30;9.70;99.90
6307;DHT22;3186;54.062;9.962;2023-03-30T06:19:56;9.50;99.90
6307;DHT22;3186;54.062;9.962;2023-03-30T06:22:22;9.70;99.90
6307;DHT22;3186;54.062;9.962;2023-03-30T06:24:56;9.60;99.90
6307;DHT22;3186;54.062;9.962;2023-03-30T06:27:22;9.60;99.90
6307;DHT22;3186;54.062;9.962;2023-03-30T06:29:48;9.60;99.90
6307;DHT22;3186;54.062;9.962;2023-03-30T06:32:14;9.60;99.90
6307;DHT22;3186;54.062;9.962;2023-03-30T06:35:16;9.60;99.90
6307;DHT22;3186;54.062;9.962;2023-03-30T06:37:42;9.80;99.90
6307;DHT22;3186;54.062;9.962;2023-03-30T06:40:09;9.90;99.90
6307;DHT22;3186;54.062;9.962;2023-03-30T06:42:40;9.90;99.90
6307;DHT22;3186;54.062;9.962;2023-03-30T06:45:18;9.70;99.90
6307;DHT22;3186;54.062;9.962;2023-03-30T06:47:44;9.80;99.90
6307;DHT22;3186;54.062;9.962;2023-03-30T06:50:10;9.90;99.90
6307;DHT22;3186;54.062;9.962;2023-03-30T06:52:44;10.00;99.90
6307;DHT22;3186;54.062;9.962;2023-03-30T06:55:10;9.90;99.90
6307;DHT22;3186;54.062;9.962;2023-03-30T06:57:36;10.00;99.90
6307;DHT22;3186;54.062;9.962;2023-03-30T07:00:03;10.10;99.90
6307;DHT22;3186;54.062;9.962;2023-03-30T07:02:39;10.20;99.90
6307;DHT22;3186;54.062;9.962;2023-03-30T07:05:05;10.20;99.90
6307;DHT22;3186;54.062;9.962;2023-03-30T07:07:36;10.30;99.90
6307;DHT22;3186;54.062;9.962;2023-03-30T07:10:03;10.30;99.90
6307;DHT22;3186;54.062;9.962;2023-03-30T07:12:38;10.40;99.90
6307;DHT22;3186;54.062;9.962;2023-03-30T07:15:07;10.40;99.90
6307;DHT22;3186;54.062;9.962;2023-03-30T07:17:35;10.40;99.90
6307;DHT22;3186;54.062;9.962;2023-03-30T07:20:01;10.50;99.90
6307;DHT22;3186;54.062;9.962;2023-03-30T07:22:28;10.50;99.90
6307;DHT22;3186;54.062;9.962;2023-03-30T07:24:55;10.60;99.90
6307;DHT22;3186;54.062;9.962;2023-03-30T07:27:22;10.50;99.90
6307;DHT22;3186;54.062;9.962;2023-03-30T07:29:51;10.60;99.90
6307;DHT22;3186;54.062;9.962;2023-03-30T07:32:18;10.50;99.90
6307;DHT22;3186;54.062;9.962;2023-03-30T07:34:44;10.50;99.90
6307;DHT22;3186;54.062;9.962;2023-03-30T07:37:12;10.60;99.90
6307;DHT22;3186;54.062;9.962;2023-03-30T07:39:39;10.70;99.90
6307;DHT22;3186;54.062;9.962;2023-03-30T07:42:06;10.60;99.90
6307;DHT22;3186;54.062;9.962;2023-03-30T07:44:32;10.60;99.90
6307;DHT22;3186;54.062;9.962;2023-03-30T07:47:02;10.70;99.90
6307;DHT22;3186;54.062;9.962;2023-03-30T07:49:32;10.90;99.90
6307;DHT22;3186;54.062;9.962;2023-03-30T07:51:58;11.00;99.90
6307;DHT22;3186;54.062;9.962;2023-03-30T07:54:31;11.10;99.90
6307;DHT22;3186;54.062;9.962;2023-03-30T07:57:27;11.00;99.90
6307;DHT22;3186;54.062;9.962;2023-03-30T07:59:53;11.00;99.90
6307;DHT22;3186;54.062;9.962;2023-03-30T08:02:37;11.10;99.90
6307;DHT22;3186;54.062;9.962;2023-03-30T08:05:05;11.10;99.90
6307;DHT22;3186;54.062;9.962;2023-03-30T08:07:54;11.30;99.90
6307;DHT22;3186;54.062;9.962;2023-03-30T08:10:26;11.40;99.90
6307;DHT22;3186;54.062;9.962;2023-03-30T08:12:52;11.20;99.90
6307;DHT22;3186;54.062;9.962;2023-03-30T08:15:18;11.40;99.90
6307;DHT22;3186;54.062;9.962;2023-03-30T08:17:44;11.30;99.90
6307;DHT22;3186;54.062;9.962;2023-03-30T08:20:10;11.40;99.90
6307;DHT22;3186;54.062;9.962;2023-03-30T08:22:36;11.40;99.90
6307;DHT22;3186;54.062;9.962;2023-03-30T08:25:02;11.60;99.90
6307;DHT22;3186;54.062;9.962;2023-03-30T08:27:28;11.50;99.90
6307;DHT22;3186;54.062;9.962;2023-03-30T08:29:53;11.60;99.90
6307;DHT22;3186;54.062;9.962;2023-03-30T08:32:19;11.70;99.90
6307;DHT22;3186;54.062;9.962;2023-03-30T08:34:45;11.70;99.90
6307;DHT22;3186;54.062;9.962;2023-03-30T08:37:11;11.80;99.90
6307;DHT22;3186;54.062;9.962;2023-03-30T08:39:37;11.80;99.90
6307;DHT22;3186;54.062;9.962;2023-03-30T08:44:55;12.00;99.90
6307;DHT22;3186;54.062;9.962;2023-03-30T08:47:30;12.00;99.90
6307;DHT22;3186;54.062;9.962;2023-03-30T08:52:34;12.20;99.90
6307;DHT22;3186;54.062;9.962;2023-03-30T08:55:00;12.10;99.90
6307;DHT22;3186;54.062;9.962;2023-03-30T08:57:37;12.20;99.90
6307;DHT22;3186;54.062;9.962;2023-03-30T09:02:43;12.30;99.90
6307;DHT22;3186;54.062;9.962;2023-03-30T09:05:25;12.40;99.90
6307;DHT22;3186;54.062;9.962;2023-03-30T09:08:18;12.40;99.90
6307;DHT22;3186;54.062;9.962;2023-03-30T09:10:53;12.60;99.90
6307;DHT22;3186;54.062;9.962;2023-03-30T09:13:23;12.60;99.90
6307;DHT22;3186;54.062;9.962;2023-03-30T09:18:31;12.70;99.90
6307;DHT22;3186;54.062;9.962;2023-03-30T09:21:01;12.90;99.90
6307;DHT22;3186;54.062;9.962;2023-03-30T09:23:29;13.20;99.90
6307;DHT22;3186;54.062;9.962;2023-03-30T09:31:07;13.80;99.90
6307;DHT22;3186;54.062;9.962;2023-03-30T09:36:38;13.70;99.90
6307;DHT22;3186;54.062;9.962;2023-03-30T09:39:23;13.50;99.90
6307;DHT22;3186;54.062;9.962;2023-03-30T09:42:20;13.30;99.90
6307;DHT22;3186;54.062;9.962;2023-03-30T09:47:22;13.60;99.90
6307;DHT22;3186;54.062;9.962;2023-03-30T09:49:55;13.60;99.90
6307;DHT22;3186;54.062;9.962;2023-03-30T09:52:24;13.60;99.90
6307;DHT22;3186;54.062;9.962;2023-03-30T09:54:50;13.70;99.90
6307;DHT22;3186;54.062;9.962;2023-03-30T09:57:31;13.70;99.90
6307;DHT22;3186;54.062;9.962;2023-03-30T09:59:59;13.80;99.90
6307;DHT22;3186;54.062;9.962;2023-03-30T10:02:27;13.70;99.90
6307;DHT22;3186;54.062;9.962;2023-03-30T10:05:00;13.80;99.90
6307;DHT22;3186;54.062;9.962;2023-03-30T10:07:39;14.00;99.90
6307;DHT22;3186;54.062;9.962;2023-03-30T10:10:15;14.20;99.90
6307;DHT22;3186;54.062;9.962;2023-03-30T10:12:41;14.20;99.90
6307;DHT22;3186;54.062;9.962;2023-03-30T10:15:14;14.30;99.90
6307;DHT22;3186;54.062;9.962;2023-03-30T10:17:41;14.20;99.90
6307;DHT22;3186;54.062;9.962;2023-03-30T10:20:34;14.20;99.90
6307;DHT22;3186;54.062;9.962;2023-03-30T10:23:11;14.20;99.90
6307;DHT22;3186;54.062;9.962;2023-03-30T10:25:40;14.20;99.90
6307;DHT22;3186;54.062;9.962;2023-03-30T10:28:19;14.40;99.90
6307;DHT22;3186;54.062;9.962;2023-03-30T10:30:54;14.20;99.90
6307;DHT22;3186;54.062;9.962;2023-03-30T10:33:22;14.30;99.90
6307;DHT22;3186;54.062;9.962;2023-03-30T10:35:50;14.20;99.90
6307;DHT22;3186;54.062;9.962;2023-03-30T10:38:22;14.10;99.90
6307;DHT22;3186;54.062;9.962;2023-03-30T10:40:52;14.20;99.90
6307;DHT22;3186;54.062;9.962;2023-03-30T10:43:29;14.20;99.90
6307;DHT22;3186;54.062;9.962;2023-03-30T10:45:57;14.30;99.90
6307;DHT22;3186;54.062;9.962;2023-03-30T10:56:54;14.70;99.90
6307;DHT22;3186;54.062;9.962;2023-03-30T11:00:15;14.70;99.90
6307;DHT22;3186;54.062;9.962;2023-03-30T11:04:48;14.70;99.90
6307;DHT22;3186;54.062;9.962;2023-03-30T11:10:05;14.80;99.90
6307;DHT22;3186;54.062;9.962;2023-03-30T11:12:41;14.40;99.90
6307;DHT22;3186;54.062;9.962;2023-03-30T11:15:14;14.30;99.90
6307;DHT22;3186;54.062;9.962;2023-03-30T11:17:56;14.20;99.90
6307;DHT22;3186;54.062;9.962;2023-03-30T11:20:27;14.10;99.90
6307;DHT22;3186;54.062;9.962;2023-03-30T11:23:00;14.10;99.90
6307;DHT22;3186;54.062;9.962;2023-03-30T11:31:00;14.40;99.90
6307;DHT22;3186;54.062;9.962;2023-03-30T11:33:30;14.40;99.90
6307;DHT22;3186;54.062;9.962;2023-03-30T11:36:13;14.50;99.90
6307;DHT22;3186;54.062;9.962;2023-03-30T11:41:19;14.90;99.90
6307;DHT22;3186;54.062;9.962;2023-03-30T11:43:48;15.00;99.90
6307;DHT22;3186;54.062;9.962;2023-03-30T11:46:37;15.20;99.90
6307;DHT22;3186;54.062;9.962;2023-03-30T11:52:05;14.90;99.90
6307;DHT22;3186;54.062;9.962;2023-03-30T11:54:57;14.90;99.90
6307;DHT22;3186;54.062;9.962;2023-03-30T12:03:17;14.40;99.90
6307;DHT22;3186;54.062;9.962;2023-03-30T12:05:45;14.40;99.90
6307;DHT22;3186;54.062;9.962;2023-03-30T12:13:29;14.50;99.90
6307;DHT22;3186;54.062;9.962;2023-03-30T12:16:07;14.50;99.90
6307;DHT22;3186;54.062;9.962;2023-03-30T12:21:35;14.30;99.90
6307;DHT22;3186;54.062;9.962;2023-03-30T12:24:24;14.30;99.90
6307;DHT22;3186;54.062;9.962;2023-03-30T12:26:52;14.10;99.90
6307;DHT22;3186;54.062;9.962;2023-03-30T12:29:18;14.00;99.90
6307;DHT22;3186;54.062;9.962;2023-03-30T12:32:04;14.30;99.90
6307;DHT22;3186;54.062;9.962;2023-03-30T12:34:35;14.30;99.90
6307;DHT22;3186;54.062;9.962;2023-03-30T12:37:21;14.20;99.90
6307;DHT22;3186;54.062;9.962;2023-03-30T12:39:55;14.30;99.90
6307;DHT22;3186;54.062;9.962;2023-03-30T12:42:30;14.40;99.90
6307;DHT22;3186;54.062;9.962;2023-03-30T12:47:55;14.20;99.90
6307;DHT22;3186;54.062;9.962;2023-03-30T12:50:50;14.50;99.90
6307;DHT22;3186;54.062;9.962;2023-03-30T12:58:42;14.40;99.90
6307;DHT22;3186;54.062;9.962;2023-03-30T13:04:14;14.40;99.90
6307;DHT22;3186;54.062;9.962;2023-03-30T13:07:35;14.50;99.90
6307;DHT22;3186;54.062;9.962;2023-03-30T13:12:38;14.20;99.90
6307;DHT22;3186;54.062;9.962;2023-03-30T13:17:56;14.40;99.90
6307;DHT22;3186;54.062;9.962;2023-03-30T13:20:35;14.40;99.90
6307;DHT22;3186;54.062;9.962;2023-03-30T13:25:50;14.30;99.90
6307;DHT22;3186;54.062;9.962;2023-03-30T13:32:11;14.40;99.90
6307;DHT22;3186;54.062;9.962;2023-03-30T13:51:13;14.00;99.90
6307;DHT22;3186;54.062;9.962;2023-03-30T13:53:49;14.10;99.90
6307;DHT22;3186;54.062;9.962;2023-03-30T13:56:17;13.80;99.90
6307;DHT22;3186;54.062;9.962;2023-03-30T13:58:49;13.60;99.90
6307;DHT22;3186;54.062;9.962;2023-03-30T14:01:19;13.70;99.90
6307;DHT22;3186;54.062;9.962;2023-03-30T14:03:54;13.90;99.90
6307;DHT22;3186;54.062;9.962;2023-03-30T14:06:23;13.80;99.90
6307;DHT22;3186;54.062;9.962;2023-03-30T14:11:35;13.70;99.90
6307;DHT22;3186;54.062;9.962;2023-03-30T14:14:03;13.60;99.90
6307;DHT22;3186;54.062;9.962;2023-03-30T14:16:36;13.70;99.90
6307;DHT22;3186;54.062;9.962;2023-03-30T14:21:44;13.60;99.90
6307;DHT22;3186;54.062;9.962;2023-03-30T14:24:19;13.60;99.90
6307;DHT22;3186;54.062;9.962;2023-03-30T14:26:50;13.40;99.90
6307;DHT22;3186;54.062;9.962;2023-03-30T14:29:19;13.30;99.90
6307;DHT22;3186;54.062;9.962;2023-03-30T14:31:48;13.00;99.90
6307;DHT22;3186;54.062;9.962;2023-03-30T14:34:29;13.20;99.90
6307;DHT22;3186;54.062;9.962;2023-03-30T14:37:06;13.30;99.90
6307;DHT22;3186;54.062;9.962;2023-03-30T14:39:43;13.40;99.90
6307;DHT22;3186;54.062;9.962;2023-03-30T14:44:42;13.40;99.90
6307;DHT22;3186;54.062;9.962;2023-03-30T14:47:08;13.40;99.90
6307;DHT22;3186;54.062;9.962;2023-03-30T14:49:35;13.10;99.90
6307;DHT22;3186;54.062;9.962;2023-03-30T14:52:17;13.10;99.90
6307;DHT22;3186;54.062;9.962;2023-03-30T14:54:44;13.00;99.90
6307;DHT22;3186;54.062;9.962;2023-03-30T14:57:13;13.10;99.90
6307;DHT22;3186;54.062;9.962;2023-03-30T15:00:00;13.00;99.90
6307;DHT22;3186;54.062;9.962;2023-03-30T15:02:35;12.90;99.90
6307;DHT22;3186;54.062;9.962;2023-03-30T15:05:02;13.00;99.90
6307;DHT22;3186;54.062;9.962;2023-03-30T15:07:30;13.00;99.90
6307;DHT22;3186;54.062;9.962;2023-03-30T15:09:58;13.20;99.90
6307;DHT22;3186;54.062;9.962;2023-03-30T15:12:26;13.00;99.90
6307;DHT22;3186;54.062;9.962;2023-03-30T15:14:59;13.20;99.90
6307;DHT22;3186;54.062;9.962;2023-03-30T15:17:26;13.10;99.90
6307;DHT22;3186;54.062;9.962;2023-03-30T15:19:54;12.90;99.90
6307;DHT22;3186;54.062;9.962;2023-03-30T15:22:29;12.80;99.90
6307;DHT22;3186;54.062;9.962;2023-03-30T15:25:00;13.00;99.90
6307;DHT22;3186;54.062;9.962;2023-03-30T15:27:28;12.90;99.90
6307;DHT22;3186;54.062;9.962;2023-03-30T15:29:54;13.00;99.90
6307;DHT22;3186;54.062;9.962;2023-03-30T15:32:31;13.00;99.90
6307;DHT22;3186;54.062;9.962;2023-03-30T15:37:57;13.10;99.90
6307;DHT22;3186;54.062;9.962;2023-03-30T15:40:33;13.00;99.90
6307;DHT22;3186;54.062;9.962;2023-03-30T15:46:03;13.10;99.90
6307;DHT22;3186;54.062;9.962;2023-03-30T15:48:50;13.10;99.90
6307;DHT22;3186;54.062;9.962;2023-03-30T15:59:39;12.90;99.90
6307;DHT22;3186;54.062;9.962;2023-03-30T16:02:21;13.00;99.90
6307;DHT22;3186;54.062;9.962;2023-03-30T16:04:48;12.90;99.90
6307;DHT22;3186;54.062;9.962;2023-03-30T16:07:20;12.90;99.90
6307;DHT22;3186;54.062;9.962;2023-03-30T16:09:47;12.90;99.90
6307;DHT22;3186;54.062;9.962;2023-03-30T16:12:15;12.90;99.90
6307;DHT22;3186;54.062;9.962;2023-03-30T16:14:42;12.80;99.90
6307;DHT22;3186;54.062;9.962;2023-03-30T16:17:10;12.90;99.90
6307;DHT22;3186;54.062;9.962;2023-03-30T16:19:41;12.80;99.90
6307;DHT22;3186;54.062;9.962;2023-03-30T16:22:08;12.90;99.90
6307;DHT22;3186;54.062;9.962;2023-03-30T16:24:34;12.80;99.90
6307;DHT22;3186;54.062;9.962;2023-03-30T16:27:01;12.90;99.90
6307;DHT22;3186;54.062;9.962;2023-03-30T16:29:27;13.00;99.90
6307;DHT22;3186;54.062;9.962;2023-03-30T16:31:53;12.90;99.90
6307;DHT22;3186;54.062;9.962;2023-03-30T16:34:20;12.80;99.90
6307;DHT22;3186;54.062;9.962;2023-03-30T16:36:47;12.80;99.90
6307;DHT22;3186;54.062;9.962;2023-03-30T16:39:21;12.70;99.90
6307;DHT22;3186;54.062;9.962;2023-03-30T16:41:49;12.80;99.90
6307;DHT22;3186;54.062;9.962;2023-03-30T16:44:16;12.70;99.90
6307;DHT22;3186;54.062;9.962;2023-03-30T16:46:43;12.80;99.90
6307;DHT22;3186;54.062;9.962;2023-03-30T16:49:14;12.70;99.90
6307;DHT22;3186;54.062;9.962;2023-03-30T16:51:41;12.70;99.90
6307;DHT22;3186;54.062;9.962;2023-03-30T16:54:07;12.70;99.90
6307;DHT22;3186;54.062;9.962;2023-03-30T16:56:33;12.60;99.90
6307;DHT22;3186;54.062;9.962;2023-03-30T16:58:59;12.70;99.90
6307;DHT22;3186;54.062;9.962;2023-03-30T17:01:27;12.70;99.90
6307;DHT22;3186;54.062;9.962;2023-03-30T17:03:53;12.60;99.90
6307;DHT22;3186;54.062;9.962;2023-03-30T17:06:19;12.60;99.90
6307;DHT22;3186;54.062;9.962;2023-03-30T17:08:50;12.50;99.90
6307;DHT22;3186;54.062;9.962;2023-03-30T17:11:16;12.50;99.90
6307;DHT22;3186;54.062;9.962;2023-03-30T17:13:42;12.60;99.90
6307;DHT22;3186;54.062;9.962;2023-03-30T17:16:14;12.60;99.90
6307;DHT22;3186;54.062;9.962;2023-03-30T17:18:40;12.60;99.90
6307;DHT22;3186;54.062;9.962;2023-03-30T17:21:06;12.50;99.90
6307;DHT22;3186;54.062;9.962;2023-03-30T17:23:37;12.50;99.90
6307;DHT22;3186;54.062;9.962;2023-03-30T17:26:03;12.50;99.90
6307;DHT22;3186;54.062;9.962;2023-03-30T17:28:31;12.50;99.90
6307;DHT22;3186;54.062;9.962;2023-03-30T17:31:01;12.40;99.90
6307;DHT22;3186;54.062;9.962;2023-03-30T17:33:27;12.40;99.90
6307;DHT22;3186;54.062;9.962;2023-03-30T17:35:56;12.40;99.90
6307;DHT22;3186;54.062;9.962;2023-03-30T17:38:23;12.40;99.90
6307;DHT22;3186;54.062;9.962;2023-03-30T17:40:49;12.40;99.90
6307;DHT22;3186;54.062;9.962;2023-03-30T17:43:15;12.50;99.90
6307;DHT22;3186;54.062;9.962;2023-03-30T17:45:41;12.60;99.90
6307;DHT22;3186;54.062;9.962;2023-03-30T17:48:12;12.50;99.90
6307;DHT22;3186;54.062;9.962;2023-03-30T17:50:40;12.50;99.90
6307;DHT22;3186;54.062;9.962;2023-03-30T17:53:09;12.50;99.90
6307;DHT22;3186;54.062;9.962;2023-03-30T17:55:38;12.40;99.90
6307;DHT22;3186;54.062;9.962;2023-03-30T17:58:12;12.40;99.90
6307;DHT22;3186;54.062;9.962;2023-03-30T18:00:39;12.30;99.90
6307;DHT22;3186;54.062;9.962;2023-03-30T18:03:05;12.30;99.90
6307;DHT22;3186;54.062;9.962;2023-03-30T18:05:31;12.30;99.90
6307;DHT22;3186;54.062;9.962;2023-03-30T18:07:57;12.30;99.90
6307;DHT22;3186;54.062;9.962;2023-03-30T18:10:35;12.20;99.90
6307;DHT22;3186;54.062;9.962;2023-03-30T18:13:02;12.10;99.90
6307;DHT22;3186;54.062;9.962;2023-03-30T18:15:28;12.00;99.90
6307;DHT22;3186;54.062;9.962;2023-03-30T18:17:55;12.10;99.90
6307;DHT22;3186;54.062;9.962;2023-03-30T18:22:51;12.10;99.90
6307;DHT22;3186;54.062;9.962;2023-03-30T18:25:18;12.00;99.90
6307;DHT22;3186;54.062;9.962;2023-03-30T18:27:44;12.10;99.90
6307;DHT22;3186;54.062;9.962;2023-03-30T18:30:37;12.00;99.90
6307;DHT22;3186;54.062;9.962;2023-03-30T18:33:04;12.00;99.90
6307;DHT22;3186;54.062;9.962;2023-03-30T18:35:32;11.90;99.90
6307;DHT22;3186;54.062;9.962;2023-03-30T18:38:02;12.00;99.90
6307;DHT22;3186;54.062;9.962;2023-03-30T18:40:31;11.90;99.90
6307;DHT22;3186;54.062;9.962;2023-03-30T18:42:58;11.80;99.90
6307;DHT22;3186;54.062;9.962;2023-03-30T18:45:29;11.80;99.90
6307;DHT22;3186;54.062;9.962;2023-03-30T18:47:57;11.90;99.90
6307;DHT22;3186;54.062;9.962;2023-03-30T18:52:56;11.80;99.90
6307;DHT22;3186;54.062;9.962;2023-03-30T18:55:22;11.90;99.90
6307;DHT22;3186;54.062;9.962;2023-03-30T18:57:48;11.90;99.90
6307;DHT22;3186;54.062;9.962;2023-03-30T19:00:22;11.90;99.90
6307;DHT22;3186;54.062;9.962;2023-03-30T19:02:49;11.80;99.90
6307;DHT22;3186;54.062;9.962;2023-03-30T19:05:16;11.70;99.90
6307;DHT22;3186;54.062;9.962;2023-03-30T19:07:42;11.70;99.90
6307;DHT22;3186;54.062;9.962;2023-03-30T19:10:10;11.70;99.90
6307;DHT22;3186;54.062;9.962;2023-03-30T19:12:37;11.70;99.90
6307;DHT22;3186;54.062;9.962;2023-03-30T19:15:04;11.70;99.90
6307;DHT22;3186;54.062;9.962;2023-03-30T19:17:30;11.70;99.90
6307;DHT22;3186;54.062;9.962;2023-03-30T19:19:55;11.60;99.90
6307;DHT22;3186;54.062;9.962;2023-03-30T19:22:21;11.70;99.90
6307;DHT22;3186;54.062;9.962;2023-03-30T19:24:47;11.70;99.90
6307;DHT22;3186;54.062;9.962;2023-03-30T19:27:13;11.70;99.90
6307;DHT22;3186;54.062;9.962;2023-03-30T19:29:39;11.70;99.90
6307;DHT22;3186;54.062;9.962;2023-03-30T19:32:05;11.70;99.90
6307;DHT22;3186;54.062;9.962;2023-03-30T19:34:31;11.70;99.90
6307;DHT22;3186;54.062;9.962;2023-03-30T19:36:56;11.70;99.90